Bucks Bar, California
Current Conditions -  °F | °C
As of 6:15 AM on Monday 20 Oct 2014 (Local Time) from KPVF Reporting Station
Overcast Overcast  
Wind Chill: 57°   Ceiling: 4500
Heat Index: 57°   Visibility: 10mi
Dew Point: 45°   Wind: 0mph
Humidity: 63%   Direction: NA
Pressure: 29.95"   Gusts: NA
Location:  38.7308°N, 120.774°W
Report Text: KPVF 201315Z AUTO 00000KT 10SM FEW038 OVC045 14/07 A2995 RMK AO1
Loading
Personal Weather Stations






























Interactive Weather Map
Tropical Storm Tracking
New forecast layout! Learn more

10-Day Weather Forecast

Advertisements
Track Severe Weather on mobile